Isle of Scalpay, United Kingdom
Current Conditions -  °F | °C
As of 4:20 PM on Monday 26 Jan 2015 (Local Time) from EGPO Reporting Station
Rain Showers Rain Showers  
Wind Chill: 33°   Ceiling: Unl
Heat Index: 37°   Visibility: 6mi
Dew Point: 34°   Wind: 6mph
Humidity: 87%   Direction: 230°SW
Pressure: 30.09"   Gusts: NA
Location:  57.87°N, 6.7°W
Report Text: EGPO 261620Z 23005KT 220V280 9999 VCSH FEW012CB FEW020 03/01 Q1019
Loading
Personal Weather Stations






























Interactive Weather Map New forecast layout! Learn more

10-Day Weather Forecast

Advertisements
Track Severe Weather on mobile